sensor_id;sensor_type;location;lat;lon;timestamp;P1;durP1;ratioP1;P2;durP2;ratioP2
18023;SDS011;9137;50.960;3.118;2022-07-26T00:02:08;9.13;;;2.97;;
18023;SDS011;9137;50.960;3.118;2022-07-26T00:04:35;9.07;;;3.00;;
18023;SDS011;9137;50.960;3.118;2022-07-26T00:07:02;8.40;;;3.22;;
18023;SDS011;9137;50.960;3.118;2022-07-26T00:09:29;10.02;;;3.28;;
18023;SDS011;9137;50.960;3.118;2022-07-26T00:11:57;7.72;;;2.65;;
18023;SDS011;9137;50.960;3.118;2022-07-26T00:14:24;7.63;;;2.63;;
18023;SDS011;9137;50.960;3.118;2022-07-26T00:16:51;8.80;;;2.92;;
18023;SDS011;9137;50.960;3.118;2022-07-26T00:19:18;6.88;;;2.65;;
18023;SDS011;9137;50.960;3.118;2022-07-26T00:21:45;7.53;;;2.60;;
18023;SDS011;9137;50.960;3.118;2022-07-26T00:24:32;10.18;;;2.53;;
18023;SDS011;9137;50.960;3.118;2022-07-26T00:27:01;10.05;;;2.78;;
18023;SDS011;9137;50.960;3.118;2022-07-26T00:29:28;6.07;;;2.55;;
18023;SDS011;9137;50.960;3.118;2022-07-26T00:31:55;10.32;;;3.22;;
18023;SDS011;9137;50.960;3.118;2022-07-26T00:34:22;7.82;;;2.90;;
18023;SDS011;9137;50.960;3.118;2022-07-26T00:36:49;6.60;;;2.80;;
18023;SDS011;9137;50.960;3.118;2022-07-26T00:39:16;10.43;;;2.92;;
18023;SDS011;9137;50.960;3.118;2022-07-26T00:41:43;11.70;;;3.63;;
18023;SDS011;9137;50.960;3.118;2022-07-26T00:44:11;8.63;;;3.08;;
18023;SDS011;9137;50.960;3.118;2022-07-26T00:46:40;5.68;;;2.50;;
18023;SDS011;9137;50.960;3.118;2022-07-26T00:49:07;11.38;;;3.65;;
18023;SDS011;9137;50.960;3.118;2022-07-26T00:51:34;10.68;;;3.28;;
18023;SDS011;9137;50.960;3.118;2022-07-26T00:54:01;8.48;;;2.80;;
18023;SDS011;9137;50.960;3.118;2022-07-26T00:56:28;9.63;;;3.55;;
18023;SDS011;9137;50.960;3.118;2022-07-26T00:58:57;9.60;;;2.97;;
18023;SDS011;9137;50.960;3.118;2022-07-26T01:01:26;10.48;;;2.97;;
18023;SDS011;9137;50.960;3.118;2022-07-26T01:03:53;11.07;;;3.15;;
18023;SDS011;9137;50.960;3.118;2022-07-26T01:06:20;10.07;;;3.10;;
18023;SDS011;9137;50.960;3.118;2022-07-26T01:08:49;9.73;;;3.05;;
18023;SDS011;9137;50.960;3.118;2022-07-26T01:11:16;10.60;;;3.20;;
18023;SDS011;9137;50.960;3.118;2022-07-26T01:13:46;11.15;;;3.10;;
18023;SDS011;9137;50.960;3.118;2022-07-26T01:16:14;10.82;;;3.28;;
18023;SDS011;9137;50.960;3.118;2022-07-26T01:18:43;7.93;;;3.30;;
18023;SDS011;9137;50.960;3.118;2022-07-26T01:21:10;10.75;;;3.13;;
18023;SDS011;9137;50.960;3.118;2022-07-26T01:23:39;10.50;;;3.45;;
18023;SDS011;9137;50.960;3.118;2022-07-26T01:26:06;9.55;;;3.50;;
18023;SDS011;9137;50.960;3.118;2022-07-26T01:28:37;11.43;;;2.92;;
18023;SDS011;9137;50.960;3.118;2022-07-26T01:31:05;7.43;;;3.28;;
18023;SDS011;9137;50.960;3.118;2022-07-26T01:33:32;6.57;;;3.33;;
18023;SDS011;9137;50.960;3.118;2022-07-26T01:36:00;7.32;;;3.05;;
18023;SDS011;9137;50.960;3.118;2022-07-26T01:38:27;10.38;;;3.72;;
18023;SDS011;9137;50.960;3.118;2022-07-26T01:40:55;9.52;;;3.13;;
18023;SDS011;9137;50.960;3.118;2022-07-26T01:43:22;7.47;;;3.30;;
18023;SDS011;9137;50.960;3.118;2022-07-26T01:45:49;7.07;;;3.20;;
18023;SDS011;9137;50.960;3.118;2022-07-26T01:48:16;11.23;;;4.13;;
18023;SDS011;9137;50.960;3.118;2022-07-26T01:50:44;7.65;;;3.03;;
18023;SDS011;9137;50.960;3.118;2022-07-26T01:53:10;8.98;;;3.80;;
18023;SDS011;9137;50.960;3.118;2022-07-26T01:55:37;7.68;;;2.80;;
18023;SDS011;9137;50.960;3.118;2022-07-26T01:58:06;7.72;;;2.60;;
18023;SDS011;9137;50.960;3.118;2022-07-26T02:00:33;9.57;;;2.97;;
18023;SDS011;9137;50.960;3.118;2022-07-26T02:03:00;6.97;;;3.03;;
18023;SDS011;9137;50.960;3.118;2022-07-26T02:05:27;6.18;;;2.80;;
18023;SDS011;9137;50.960;3.118;2022-07-26T02:07:54;8.45;;;3.42;;
18023;SDS011;9137;50.960;3.118;2022-07-26T02:10:21;8.00;;;3.17;;
18023;SDS011;9137;50.960;3.118;2022-07-26T02:12:48;7.75;;;3.00;;
18023;SDS011;9137;50.960;3.118;2022-07-26T02:15:17;9.18;;;3.10;;
18023;SDS011;9137;50.960;3.118;2022-07-26T02:17:44;7.35;;;2.60;;
18023;SDS011;9137;50.960;3.118;2022-07-26T02:20:11;6.40;;;2.60;;
18023;SDS011;9137;50.960;3.118;2022-07-26T02:22:40;7.28;;;2.92;;
18023;SDS011;9137;50.960;3.118;2022-07-26T02:25:08;4.45;;;2.67;;
18023;SDS011;9137;50.960;3.118;2022-07-26T02:27:35;5.35;;;2.70;;
18023;SDS011;9137;50.960;3.118;2022-07-26T02:30:02;4.63;;;2.38;;
18023;SDS011;9137;50.960;3.118;2022-07-26T02:32:31;5.35;;;2.38;;
18023;SDS011;9137;50.960;3.118;2022-07-26T02:34:58;6.13;;;2.70;;
18023;SDS011;9137;50.960;3.118;2022-07-26T02:37:25;4.90;;;1.93;;
18023;SDS011;9137;50.960;3.118;2022-07-26T02:39:52;3.22;;;2.00;;
18023;SDS011;9137;50.960;3.118;2022-07-26T02:42:19;3.23;;;1.90;;
18023;SDS011;9137;50.960;3.118;2022-07-26T02:44:46;4.10;;;1.98;;
18023;SDS011;9137;50.960;3.118;2022-07-26T02:47:13;2.87;;;2.03;;
18023;SDS011;9137;50.960;3.118;2022-07-26T02:49:41;3.65;;;2.00;;
18023;SDS011;9137;50.960;3.118;2022-07-26T02:52:08;2.83;;;2.00;;
18023;SDS011;9137;50.960;3.118;2022-07-26T02:54:35;3.13;;;2.10;;
18023;SDS011;9137;50.960;3.118;2022-07-26T02:57:02;3.92;;;2.47;;
18023;SDS011;9137;50.960;3.118;2022-07-26T02:59:29;2.93;;;1.73;;
18023;SDS011;9137;50.960;3.118;2022-07-26T03:01:56;2.97;;;1.90;;
18023;SDS011;9137;50.960;3.118;2022-07-26T03:04:23;3.55;;;2.05;;
18023;SDS011;9137;50.960;3.118;2022-07-26T03:06:51;3.47;;;1.77;;
18023;SDS011;9137;50.960;3.118;2022-07-26T03:09:18;5.63;;;2.10;;
18023;SDS011;9137;50.960;3.118;2022-07-26T03:11:45;3.60;;;2.33;;
18023;SDS011;9137;50.960;3.118;2022-07-26T03:14:12;2.00;;;1.77;;
18023;SDS011;9137;50.960;3.118;2022-07-26T03:16:39;3.43;;;1.83;;
18023;SDS011;9137;50.960;3.118;2022-07-26T03:19:06;2.20;;;1.60;;
18023;SDS011;9137;50.960;3.118;2022-07-26T03:21:33;5.37;;;2.00;;
18023;SDS011;9137;50.960;3.118;2022-07-26T03:24:01;4.47;;;1.83;;
18023;SDS011;9137;50.960;3.118;2022-07-26T03:26:29;1.90;;;1.60;;
18023;SDS011;9137;50.960;3.118;2022-07-26T03:28:55;3.65;;;2.00;;
18023;SDS011;9137;50.960;3.118;2022-07-26T03:31:23;4.80;;;1.93;;
18023;SDS011;9137;50.960;3.118;2022-07-26T03:33:52;2.55;;;1.73;;
18023;SDS011;9137;50.960;3.118;2022-07-26T03:36:19;3.20;;;2.03;;
18023;SDS011;9137;50.960;3.118;2022-07-26T03:38:46;3.42;;;1.98;;
18023;SDS011;9137;50.960;3.118;2022-07-26T03:41:14;4.23;;;2.13;;
18023;SDS011;9137;50.960;3.118;2022-07-26T03:43:41;3.58;;;2.00;;
18023;SDS011;9137;50.960;3.118;2022-07-26T03:46:08;2.97;;;1.80;;
18023;SDS011;9137;50.960;3.118;2022-07-26T03:48:35;3.60;;;1.88;;
18023;SDS011;9137;50.960;3.118;2022-07-26T03:51:02;5.75;;;1.95;;
18023;SDS011;9137;50.960;3.118;2022-07-26T03:53:29;4.73;;;1.90;;
18023;SDS011;9137;50.960;3.118;2022-07-26T03:55:56;4.57;;;2.00;;
18023;SDS011;9137;50.960;3.118;2022-07-26T03:58:41;3.00;;;1.92;;
18023;SDS011;9137;50.960;3.118;2022-07-26T04:01:08;5.70;;;2.63;;
18023;SDS011;9137;50.960;3.118;2022-07-26T04:03:35;3.60;;;2.30;;
18023;SDS011;9137;50.960;3.118;2022-07-26T04:06:03;5.13;;;2.20;;
18023;SDS011;9137;50.960;3.118;2022-07-26T04:08:30;3.72;;;1.90;;
18023;SDS011;9137;50.960;3.118;2022-07-26T04:10:57;3.70;;;2.03;;
18023;SDS011;9137;50.960;3.118;2022-07-26T04:13:24;6.20;;;3.33;;
18023;SDS011;9137;50.960;3.118;2022-07-26T04:15:53;4.05;;;1.90;;
18023;SDS011;9137;50.960;3.118;2022-07-26T04:18:20;3.78;;;2.17;;
18023;SDS011;9137;50.960;3.118;2022-07-26T04:20:48;4.70;;;2.10;;
18023;SDS011;9137;50.960;3.118;2022-07-26T04:23:15;4.57;;;1.90;;
18023;SDS011;9137;50.960;3.118;2022-07-26T04:25:42;2.85;;;1.80;;
18023;SDS011;9137;50.960;3.118;2022-07-26T04:28:09;3.42;;;1.98;;
18023;SDS011;9137;50.960;3.118;2022-07-26T04:30:37;2.67;;;1.80;;
18023;SDS011;9137;50.960;3.118;2022-07-26T04:33:07;5.50;;;2.20;;
18023;SDS011;9137;50.960;3.118;2022-07-26T04:35:34;4.03;;;2.33;;
18023;SDS011;9137;50.960;3.118;2022-07-26T04:38:01;4.60;;;2.10;;
18023;SDS011;9137;50.960;3.118;2022-07-26T04:40:28;2.80;;;1.70;;
18023;SDS011;9137;50.960;3.118;2022-07-26T04:42:57;2.17;;;1.75;;
18023;SDS011;9137;50.960;3.118;2022-07-26T04:45:25;3.83;;;1.83;;
18023;SDS011;9137;50.960;3.118;2022-07-26T04:47:52;4.28;;;1.88;;
18023;SDS011;9137;50.960;3.118;2022-07-26T04:50:21;5.72;;;2.10;;
18023;SDS011;9137;50.960;3.118;2022-07-26T04:52:50;4.03;;;2.22;;
18023;SDS011;9137;50.960;3.118;2022-07-26T04:55:17;3.90;;;1.70;;
18023;SDS011;9137;50.960;3.118;2022-07-26T04:57:44;2.97;;;1.93;;
18023;SDS011;9137;50.960;3.118;2022-07-26T05:00:12;4.00;;;1.70;;
18023;SDS011;9137;50.960;3.118;2022-07-26T05:02:41;4.05;;;1.83;;
18023;SDS011;9137;50.960;3.118;2022-07-26T05:05:08;5.30;;;1.70;;
18023;SDS011;9137;50.960;3.118;2022-07-26T05:07:40;4.80;;;1.67;;
18023;SDS011;9137;50.960;3.118;2022-07-26T05:10:08;3.58;;;1.60;;
18023;SDS011;9137;50.960;3.118;2022-07-26T05:12:35;3.22;;;1.60;;
18023;SDS011;9137;50.960;3.118;2022-07-26T05:15:03;3.13;;;1.70;;
18023;SDS011;9137;50.960;3.118;2022-07-26T05:17:31;5.50;;;1.73;;
18023;SDS011;9137;50.960;3.118;2022-07-26T05:19:58;6.30;;;2.53;;
18023;SDS011;9137;50.960;3.118;2022-07-26T05:22:27;2.85;;;1.67;;
18023;SDS011;9137;50.960;3.118;2022-07-26T05:24:56;5.13;;;1.60;;
18023;SDS011;9137;50.960;3.118;2022-07-26T05:27:23;6.53;;;1.83;;
18023;SDS011;9137;50.960;3.118;2022-07-26T05:29:50;5.40;;;1.80;;
18023;SDS011;9137;50.960;3.118;2022-07-26T05:32:17;3.60;;;1.90;;
18023;SDS011;9137;50.960;3.118;2022-07-26T05:34:43;3.50;;;1.63;;
18023;SDS011;9137;50.960;3.118;2022-07-26T05:37:10;4.00;;;1.77;;
18023;SDS011;9137;50.960;3.118;2022-07-26T05:39:37;4.15;;;1.73;;
18023;SDS011;9137;50.960;3.118;2022-07-26T05:42:06;5.00;;;1.90;;
18023;SDS011;9137;50.960;3.118;2022-07-26T05:44:33;3.80;;;1.40;;
18023;SDS011;9137;50.960;3.118;2022-07-26T05:47:00;4.22;;;1.65;;
18023;SDS011;9137;50.960;3.118;2022-07-26T05:49:27;5.33;;;2.30;;
18023;SDS011;9137;50.960;3.118;2022-07-26T05:51:53;3.75;;;1.63;;
18023;SDS011;9137;50.960;3.118;2022-07-26T05:54:20;6.65;;;2.50;;
18023;SDS011;9137;50.960;3.118;2022-07-26T05:56:47;5.72;;;2.58;;
18023;SDS011;9137;50.960;3.118;2022-07-26T05:59:16;5.78;;;1.70;;
18023;SDS011;9137;50.960;3.118;2022-07-26T06:01:42;4.40;;;1.95;;
18023;SDS011;9137;50.960;3.118;2022-07-26T06:04:09;2.20;;;1.67;;
18023;SDS011;9137;50.960;3.118;2022-07-26T06:06:37;4.93;;;2.00;;
18023;SDS011;9137;50.960;3.118;2022-07-26T06:09:04;5.97;;;2.03;;
18023;SDS011;9137;50.960;3.118;2022-07-26T06:11:30;4.20;;;2.23;;
18023;SDS011;9137;50.960;3.118;2022-07-26T06:13:57;6.15;;;2.28;;
18023;SDS011;9137;50.960;3.118;2022-07-26T06:16:26;5.43;;;1.92;;
18023;SDS011;9137;50.960;3.118;2022-07-26T06:18:53;4.80;;;1.75;;
18023;SDS011;9137;50.960;3.118;2022-07-26T06:21:20;7.70;;;2.35;;
18023;SDS011;9137;50.960;3.118;2022-07-26T06:23:46;3.47;;;1.67;;
18023;SDS011;9137;50.960;3.118;2022-07-26T06:26:15;5.70;;;1.73;;
18023;SDS011;9137;50.960;3.118;2022-07-26T06:28:42;2.08;;;1.23;;
18023;SDS011;9137;50.960;3.118;2022-07-26T06:31:09;5.60;;;1.55;;
18023;SDS011;9137;50.960;3.118;2022-07-26T06:33:37;4.68;;;1.83;;
18023;SDS011;9137;50.960;3.118;2022-07-26T06:36:04;4.15;;;1.63;;
18023;SDS011;9137;50.960;3.118;2022-07-26T06:38:32;3.35;;;1.70;;
18023;SDS011;9137;50.960;3.118;2022-07-26T06:40:59;4.43;;;2.00;;
18023;SDS011;9137;50.960;3.118;2022-07-26T06:43:26;4.03;;;1.45;;
18023;SDS011;9137;50.960;3.118;2022-07-26T06:45:53;4.03;;;1.70;;
18023;SDS011;9137;50.960;3.118;2022-07-26T06:48:20;3.72;;;1.58;;
18023;SDS011;9137;50.960;3.118;2022-07-26T06:50:48;3.47;;;1.73;;
18023;SDS011;9137;50.960;3.118;2022-07-26T06:53:15;4.07;;;1.70;;
18023;SDS011;9137;50.960;3.118;2022-07-26T06:55:42;6.57;;;1.70;;
18023;SDS011;9137;50.960;3.118;2022-07-26T06:58:09;3.83;;;1.75;;
18023;SDS011;9137;50.960;3.118;2022-07-26T07:00:36;5.00;;;1.83;;
18023;SDS011;9137;50.960;3.118;2022-07-26T07:03:03;5.32;;;1.88;;
18023;SDS011;9137;50.960;3.118;2022-07-26T07:05:30;5.40;;;2.50;;
18023;SDS011;9137;50.960;3.118;2022-07-26T07:07:58;4.20;;;1.60;;
18023;SDS011;9137;50.960;3.118;2022-07-26T07:10:25;2.58;;;1.30;;
18023;SDS011;9137;50.960;3.118;2022-07-26T07:12:52;4.57;;;1.90;;
18023;SDS011;9137;50.960;3.118;2022-07-26T07:15:19;3.45;;;2.10;;
18023;SDS011;9137;50.960;3.118;2022-07-26T07:17:46;3.95;;;1.60;;
18023;SDS011;9137;50.960;3.118;2022-07-26T07:20:15;6.68;;;2.00;;
18023;SDS011;9137;50.960;3.118;2022-07-26T07:22:42;4.33;;;1.97;;
18023;SDS011;9137;50.960;3.118;2022-07-26T07:25:11;4.57;;;1.80;;
18023;SDS011;9137;50.960;3.118;2022-07-26T07:27:38;3.90;;;1.42;;
18023;SDS011;9137;50.960;3.118;2022-07-26T07:30:05;4.35;;;1.52;;
18023;SDS011;9137;50.960;3.118;2022-07-26T07:32:34;3.45;;;1.50;;
18023;SDS011;9137;50.960;3.118;2022-07-26T07:35:01;3.50;;;1.45;;
18023;SDS011;9137;50.960;3.118;2022-07-26T07:37:28;3.53;;;1.40;;
18023;SDS011;9137;50.960;3.118;2022-07-26T07:39:55;3.80;;;1.40;;
18023;SDS011;9137;50.960;3.118;2022-07-26T07:42:24;3.83;;;1.65;;
18023;SDS011;9137;50.960;3.118;2022-07-26T07:44:51;4.90;;;1.30;;
18023;SDS011;9137;50.960;3.118;2022-07-26T07:47:18;4.47;;;1.60;;
18023;SDS011;9137;50.960;3.118;2022-07-26T07:49:46;5.53;;;1.70;;
18023;SDS011;9137;50.960;3.118;2022-07-26T07:52:13;3.40;;;1.85;;
18023;SDS011;9137;50.960;3.118;2022-07-26T07:54:40;5.60;;;1.77;;
18023;SDS011;9137;50.960;3.118;2022-07-26T07:57:07;4.53;;;1.35;;
18023;SDS011;9137;50.960;3.118;2022-07-26T07:59:35;4.38;;;1.45;;
18023;SDS011;9137;50.960;3.118;2022-07-26T08:02:02;3.20;;;1.50;;
18023;SDS011;9137;50.960;3.118;2022-07-26T08:04:30;2.45;;;1.30;;
18023;SDS011;9137;50.960;3.118;2022-07-26T08:06:57;3.57;;;1.30;;
18023;SDS011;9137;50.960;3.118;2022-07-26T08:09:24;4.28;;;1.40;;
18023;SDS011;9137;50.960;3.118;2022-07-26T08:11:50;3.60;;;1.35;;
18023;SDS011;9137;50.960;3.118;2022-07-26T08:14:18;3.67;;;1.42;;
18023;SDS011;9137;50.960;3.118;2022-07-26T08:16:46;3.23;;;1.60;;
18023;SDS011;9137;50.960;3.118;2022-07-26T08:19:13;4.50;;;1.67;;
18023;SDS011;9137;50.960;3.118;2022-07-26T08:21:40;3.50;;;1.42;;
18023;SDS011;9137;50.960;3.118;2022-07-26T08:24:10;3.95;;;1.27;;
18023;SDS011;9137;50.960;3.118;2022-07-26T08:26:37;6.13;;;1.65;;
18023;SDS011;9137;50.960;3.118;2022-07-26T08:29:04;3.17;;;1.42;;
18023;SDS011;9137;50.960;3.118;2022-07-26T08:31:31;2.08;;;1.42;;
18023;SDS011;9137;50.960;3.118;2022-07-26T08:33:59;3.50;;;1.67;;
18023;SDS011;9137;50.960;3.118;2022-07-26T08:36:26;3.47;;;1.25;;
18023;SDS011;9137;50.960;3.118;2022-07-26T08:38:53;5.45;;;1.50;;
18023;SDS011;9137;50.960;3.118;2022-07-26T08:41:20;3.17;;;1.33;;
18023;SDS011;9137;50.960;3.118;2022-07-26T08:43:47;3.63;;;1.45;;
18023;SDS011;9137;50.960;3.118;2022-07-26T08:46:14;3.63;;;1.47;;
18023;SDS011;9137;50.960;3.118;2022-07-26T08:48:41;3.25;;;1.40;;
18023;SDS011;9137;50.960;3.118;2022-07-26T08:51:10;2.88;;;1.35;;
18023;SDS011;9137;50.960;3.118;2022-07-26T08:53:38;1.63;;;1.20;;
18023;SDS011;9137;50.960;3.118;2022-07-26T08:56:05;2.97;;;1.30;;
18023;SDS011;9137;50.960;3.118;2022-07-26T08:58:33;2.38;;;1.23;;
18023;SDS011;9137;50.960;3.118;2022-07-26T09:01:04;2.08;;;1.23;;
18023;SDS011;9137;50.960;3.118;2022-07-26T09:03:32;2.20;;;1.10;;
18023;SDS011;9137;50.960;3.118;2022-07-26T09:06:13;1.77;;;1.07;;
18023;SDS011;9137;50.960;3.118;2022-07-26T09:08:42;1.98;;;1.10;;
18023;SDS011;9137;50.960;3.118;2022-07-26T09:11:29;2.75;;;1.50;;
18023;SDS011;9137;50.960;3.118;2022-07-26T09:13:58;2.28;;;1.23;;
18023;SDS011;9137;50.960;3.118;2022-07-26T09:16:26;4.28;;;1.42;;
18023;SDS011;9137;50.960;3.118;2022-07-26T09:18:54;3.97;;;1.60;;
18023;SDS011;9137;50.960;3.118;2022-07-26T09:21:35;2.47;;;1.50;;
18023;SDS011;9137;50.960;3.118;2022-07-26T09:24:03;4.05;;;1.45;;
18023;SDS011;9137;50.960;3.118;2022-07-26T09:26:31;2.45;;;1.55;;
18023;SDS011;9137;50.960;3.118;2022-07-26T09:29:02;4.57;;;1.73;;
18023;SDS011;9137;50.960;3.118;2022-07-26T09:31:31;2.83;;;1.80;;
18023;SDS011;9137;50.960;3.118;2022-07-26T09:33:58;5.53;;;1.77;;
18023;SDS011;9137;50.960;3.118;2022-07-26T09:36:25;2.22;;;1.70;;
18023;SDS011;9137;50.960;3.118;2022-07-26T09:38:55;4.60;;;1.33;;
18023;SDS011;9137;50.960;3.118;2022-07-26T09:41:24;3.92;;;1.70;;
18023;SDS011;9137;50.960;3.118;2022-07-26T09:43:52;3.72;;;1.65;;
18023;SDS011;9137;50.960;3.118;2022-07-26T09:46:20;3.45;;;1.60;;
18023;SDS011;9137;50.960;3.118;2022-07-26T09:48:50;3.67;;;1.67;;
18023;SDS011;9137;50.960;3.118;2022-07-26T09:54:01;3.85;;;1.73;;
18023;SDS011;9137;50.960;3.118;2022-07-26T09:56:40;1.75;;;1.30;;
18023;SDS011;9137;50.960;3.118;2022-07-26T09:59:12;3.00;;;1.20;;
18023;SDS011;9137;50.960;3.118;2022-07-26T10:01:40;3.88;;;1.70;;
18023;SDS011;9137;50.960;3.118;2022-07-26T10:04:07;1.73;;;0.68;;
18023;SDS011;9137;50.960;3.118;2022-07-26T10:06:34;0.88;;;0.40;;
18023;SDS011;9137;50.960;3.118;2022-07-26T10:09:02;1.80;;;0.50;;
18023;SDS011;9137;50.960;3.118;2022-07-26T10:11:31;2.80;;;0.50;;
18023;SDS011;9137;50.960;3.118;2022-07-26T10:20:04;0.98;;;0.30;;
18023;SDS011;9137;50.960;3.118;2022-07-26T10:22:33;1.00;;;0.40;;
18023;SDS011;9137;50.960;3.118;2022-07-26T10:28:09;2.30;;;0.50;;
18023;SDS011;9137;50.960;3.118;2022-07-26T10:30:50;1.90;;;0.60;;
18023;SDS011;9137;50.960;3.118;2022-07-26T10:33:18;2.38;;;0.70;;
18023;SDS011;9137;50.960;3.118;2022-07-26T10:35:49;0.88;;;0.40;;
18023;SDS011;9137;50.960;3.118;2022-07-26T10:38:21;1.30;;;0.40;;
18023;SDS011;9137;50.960;3.118;2022-07-26T10:40:58;1.00;;;0.45;;
18023;SDS011;9137;50.960;3.118;2022-07-26T10:43:28;1.35;;;0.50;;
18023;SDS011;9137;50.960;3.118;2022-07-26T10:48:54;1.52;;;0.63;;
18023;SDS011;9137;50.960;3.118;2022-07-26T10:51:27;0.73;;;0.50;;
18023;SDS011;9137;50.960;3.118;2022-07-26T10:54:00;0.88;;;0.50;;
18023;SDS011;9137;50.960;3.118;2022-07-26T10:56:28;2.83;;;1.10;;
18023;SDS011;9137;50.960;3.118;2022-07-26T10:58:57;1.55;;;0.50;;
18023;SDS011;9137;50.960;3.118;2022-07-26T11:01:30;1.60;;;0.47;;
18023;SDS011;9137;50.960;3.118;2022-07-26T11:03:58;1.77;;;0.60;;
18023;SDS011;9137;50.960;3.118;2022-07-26T11:06:26;1.65;;;0.45;;
18023;SDS011;9137;50.960;3.118;2022-07-26T11:08:53;2.63;;;0.65;;
18023;SDS011;9137;50.960;3.118;2022-07-26T11:11:27;2.65;;;0.65;;
18023;SDS011;9137;50.960;3.118;2022-07-26T11:14:04;1.48;;;0.50;;
18023;SDS011;9137;50.960;3.118;2022-07-26T11:16:35;2.25;;;0.70;;
18023;SDS011;9137;50.960;3.118;2022-07-26T11:19:10;2.47;;;0.80;;
18023;SDS011;9137;50.960;3.118;2022-07-26T11:21:39;1.13;;;0.80;;
18023;SDS011;9137;50.960;3.118;2022-07-26T11:24:06;2.07;;;0.80;;
18023;SDS011;9137;50.960;3.118;2022-07-26T11:26:39;3.20;;;0.80;;
18023;SDS011;9137;50.960;3.118;2022-07-26T11:29:08;4.72;;;1.08;;
18023;SDS011;9137;50.960;3.118;2022-07-26T11:31:36;2.35;;;0.47;;
18023;SDS011;9137;50.960;3.118;2022-07-26T11:34:04;1.47;;;0.50;;
18023;SDS011;9137;50.960;3.118;2022-07-26T11:36:33;1.42;;;0.50;;
18023;SDS011;9137;50.960;3.118;2022-07-26T11:39:03;1.73;;;0.30;;
18023;SDS011;9137;50.960;3.118;2022-07-26T11:41:31;1.92;;;0.77;;
18023;SDS011;9137;50.960;3.118;2022-07-26T11:43:58;2.03;;;0.60;;
18023;SDS011;9137;50.960;3.118;2022-07-26T11:46:37;3.30;;;0.80;;
18023;SDS011;9137;50.960;3.118;2022-07-26T11:49:12;3.55;;;0.85;;
18023;SDS011;9137;50.960;3.118;2022-07-26T11:51:47;3.00;;;1.10;;
18023;SDS011;9137;50.960;3.118;2022-07-26T11:54:16;4.00;;;1.08;;
18023;SDS011;9137;50.960;3.118;2022-07-26T11:56:53;3.92;;;1.33;;
18023;SDS011;9137;50.960;3.118;2022-07-26T11:59:22;2.70;;;1.00;;
18023;SDS011;9137;50.960;3.118;2022-07-26T12:01:51;4.25;;;1.20;;
18023;SDS011;9137;50.960;3.118;2022-07-26T12:04:19;4.40;;;1.20;;
18023;SDS011;9137;50.960;3.118;2022-07-26T12:06:48;4.07;;;1.60;;
18023;SDS011;9137;50.960;3.118;2022-07-26T12:09:32;2.63;;;1.00;;
18023;SDS011;9137;50.960;3.118;2022-07-26T12:12:00;5.38;;;1.38;;
18023;SDS011;9137;50.960;3.118;2022-07-26T12:14:28;3.45;;;1.02;;
18023;SDS011;9137;50.960;3.118;2022-07-26T12:16:59;3.17;;;0.95;;
18023;SDS011;9137;50.960;3.118;2022-07-26T12:19:36;2.10;;;0.90;;
18023;SDS011;9137;50.960;3.118;2022-07-26T12:22:06;1.75;;;0.60;;
18023;SDS011;9137;50.960;3.118;2022-07-26T12:24:38;2.03;;;0.55;;
18023;SDS011;9137;50.960;3.118;2022-07-26T12:27:11;2.30;;;0.88;;
18023;SDS011;9137;50.960;3.118;2022-07-26T12:29:40;2.45;;;0.77;;
18023;SDS011;9137;50.960;3.118;2022-07-26T12:32:12;3.33;;;0.80;;
18023;SDS011;9137;50.960;3.118;2022-07-26T12:34:41;2.85;;;1.10;;
18023;SDS011;9137;50.960;3.118;2022-07-26T12:37:21;2.67;;;1.02;;
18023;SDS011;9137;50.960;3.118;2022-07-26T12:39:58;4.60;;;1.00;;
18023;SDS011;9137;50.960;3.118;2022-07-26T12:42:31;3.87;;;1.37;;
18023;SDS011;9137;50.960;3.118;2022-07-26T12:44:59;1.20;;;0.80;;
18023;SDS011;9137;50.960;3.118;2022-07-26T12:47:28;4.10;;;1.05;;
18023;SDS011;9137;50.960;3.118;2022-07-26T12:49:56;3.57;;;1.10;;
18023;SDS011;9137;50.960;3.118;2022-07-26T12:52:23;3.72;;;1.10;;
18023;SDS011;9137;50.960;3.118;2022-07-26T12:54:50;2.20;;;1.02;;
18023;SDS011;9137;50.960;3.118;2022-07-26T12:57:18;3.70;;;1.27;;
18023;SDS011;9137;50.960;3.118;2022-07-26T12:59:46;4.95;;;1.45;;
18023;SDS011;9137;50.960;3.118;2022-07-26T13:02:13;3.47;;;1.20;;
18023;SDS011;9137;50.960;3.118;2022-07-26T13:04:43;3.83;;;1.60;;
18023;SDS011;9137;50.960;3.118;2022-07-26T13:07:10;4.28;;;1.30;;
18023;SDS011;9137;50.960;3.118;2022-07-26T13:09:37;3.67;;;1.40;;
18023;SDS011;9137;50.960;3.118;2022-07-26T13:12:05;2.92;;;1.75;;
18023;SDS011;9137;50.960;3.118;2022-07-26T13:14:34;5.43;;;1.73;;
18023;SDS011;9137;50.960;3.118;2022-07-26T13:17:02;7.20;;;1.88;;
18023;SDS011;9137;50.960;3.118;2022-07-26T13:19:30;5.07;;;1.80;;
18023;SDS011;9137;50.960;3.118;2022-07-26T13:21:59;3.75;;;1.40;;
18023;SDS011;9137;50.960;3.118;2022-07-26T13:24:28;4.55;;;1.45;;
18023;SDS011;9137;50.960;3.118;2022-07-26T13:26:56;5.73;;;1.70;;
18023;SDS011;9137;50.960;3.118;2022-07-26T13:29:24;3.80;;;1.57;;
18023;SDS011;9137;50.960;3.118;2022-07-26T13:31:51;4.05;;;1.70;;
18023;SDS011;9137;50.960;3.118;2022-07-26T13:34:20;2.95;;;1.40;;
18023;SDS011;9137;50.960;3.118;2022-07-26T13:36:47;4.63;;;1.90;;
18023;SDS011;9137;50.960;3.118;2022-07-26T13:39:16;4.38;;;1.52;;
18023;SDS011;9137;50.960;3.118;2022-07-26T13:41:44;4.10;;;1.55;;
18023;SDS011;9137;50.960;3.118;2022-07-26T13:44:11;5.47;;;1.70;;
18023;SDS011;9137;50.960;3.118;2022-07-26T13:46:38;5.05;;;1.83;;
18023;SDS011;9137;50.960;3.118;2022-07-26T13:49:06;5.68;;;1.40;;
18023;SDS011;9137;50.960;3.118;2022-07-26T13:51:33;5.25;;;1.60;;
18023;SDS011;9137;50.960;3.118;2022-07-26T13:54:21;6.17;;;1.60;;
18023;SDS011;9137;50.960;3.118;2022-07-26T13:56:49;4.75;;;1.50;;
18023;SDS011;9137;50.960;3.118;2022-07-26T13:59:16;4.70;;;1.60;;
18023;SDS011;9137;50.960;3.118;2022-07-26T14:01:44;5.67;;;2.13;;
18023;SDS011;9137;50.960;3.118;2022-07-26T14:04:11;4.28;;;1.50;;
18023;SDS011;9137;50.960;3.118;2022-07-26T14:06:38;4.07;;;1.80;;
18023;SDS011;9137;50.960;3.118;2022-07-26T14:09:06;2.90;;;1.40;;
18023;SDS011;9137;50.960;3.118;2022-07-26T14:11:35;3.70;;;1.77;;
18023;SDS011;9137;50.960;3.118;2022-07-26T14:14:03;3.97;;;1.30;;
18023;SDS011;9137;50.960;3.118;2022-07-26T14:16:30;6.05;;;1.63;;
18023;SDS011;9137;50.960;3.118;2022-07-26T14:18:58;6.30;;;1.38;;
18023;SDS011;9137;50.960;3.118;2022-07-26T14:21:25;3.60;;;1.40;;
18023;SDS011;9137;50.960;3.118;2022-07-26T14:23:53;6.03;;;1.40;;
18023;SDS011;9137;50.960;3.118;2022-07-26T14:26:21;4.80;;;1.20;;
18023;SDS011;9137;50.960;3.118;2022-07-26T14:28:50;6.75;;;1.35;;
18023;SDS011;9137;50.960;3.118;2022-07-26T14:31:17;4.20;;;1.25;;
18023;SDS011;9137;50.960;3.118;2022-07-26T14:33:44;3.92;;;1.35;;
18023;SDS011;9137;50.960;3.118;2022-07-26T14:36:11;6.50;;;1.52;;
18023;SDS011;9137;50.960;3.118;2022-07-26T14:38:38;4.70;;;1.35;;
18023;SDS011;9137;50.960;3.118;2022-07-26T14:41:06;6.17;;;1.70;;
18023;SDS011;9137;50.960;3.118;2022-07-26T14:43:33;3.65;;;1.25;;
18023;SDS011;9137;50.960;3.118;2022-07-26T14:46:01;5.17;;;1.00;;
18023;SDS011;9137;50.960;3.118;2022-07-26T14:48:28;3.88;;;1.35;;
18023;SDS011;9137;50.960;3.118;2022-07-26T14:50:55;2.88;;;1.13;;
18023;SDS011;9137;50.960;3.118;2022-07-26T14:53:23;2.60;;;0.88;;
18023;SDS011;9137;50.960;3.118;2022-07-26T14:55:50;3.77;;;1.10;;
18023;SDS011;9137;50.960;3.118;2022-07-26T14:58:17;3.20;;;0.75;;
18023;SDS011;9137;50.960;3.118;2022-07-26T15:00:44;2.97;;;1.20;;
18023;SDS011;9137;50.960;3.118;2022-07-26T15:03:12;3.97;;;1.05;;
18023;SDS011;9137;50.960;3.118;2022-07-26T15:05:39;3.97;;;1.30;;
18023;SDS011;9137;50.960;3.118;2022-07-26T15:08:06;4.33;;;1.03;;
18023;SDS011;9137;50.960;3.118;2022-07-26T15:10:33;3.17;;;0.90;;
18023;SDS011;9137;50.960;3.118;2022-07-26T15:13:01;3.57;;;1.43;;
18023;SDS011;9137;50.960;3.118;2022-07-26T15:15:29;3.72;;;1.40;;
18023;SDS011;9137;50.960;3.118;2022-07-26T15:17:56;3.30;;;1.08;;
18023;SDS011;9137;50.960;3.118;2022-07-26T15:20:25;3.60;;;1.37;;
18023;SDS011;9137;50.960;3.118;2022-07-26T15:22:52;3.92;;;1.20;;